Terminal Aerodrome Forecast
Issued by NWS

Home | Current Version | Previous Version | Text Only | Print | Product List | Glossary On
Versions: 1 2 3 4 5 6 7 8 9 10 11 12 13 14 15 16
000
FTUS42 KFFC 301500 AAA
TAFFTY
TAF AMD
KFTY 301544Z 3016/3112 17004KT P6SM BKN025 BKN100
     FM301800 17007KT P6SM VCSH SCT035 OVC060
      TEMPO 3021/3101 6SM -TSRA BR BKN025CB
     FM310600 00000KT 4SM BR FEW035 BKN100
     FM311100 20003KT P6SM BKN015=

USA.gov is the U.S. government's official web portal to all federal, state and local government web resources and services.